Fisher Golf — FUGD — position and weather

sailwx.info

Track history (hours):
 
Tides and Currents Weather Stations Pressure Air Temp Water Temp Dewpoint Dewpoint Depression Visibility Wind Speed Wind Dir Waves Ship Positions

Fisher Golf

Last reported at 2017-Jul-18 20:40 UTC. Time now 2017-Jul-23 10:49 UTC.
Position N 45°53' W 001°20'.

Length 20 m.

Type: Fishing. MMSI: 228239000.

Date/timePositionNaut miles runAvg speedWind from/ knotsBaromVisibWave heightAir tempDewpointWater temp
2017-Jul-18 20:40N 45°53' W 001°20'1 5.2
2017-Jul-18 20:25N 45°54' W 001°22'5 8.9
2017-Jul-18 19:52N 45°55' W 001°29'410.0
2017-Jul-18 19:30N 45°57' W 001°34'510.3
2017-Jul-18 19:00N 45°58' W 001°40'510.1
2017-Jul-18 18:30N 46°00' W 001°47'510.2
2017-Jul-18 17:59N 46°02' W 001°54'510.0
2017-Jul-18 17:27N 46°04' W 002°02'92 1.8
2017-Jul-16 14:30N 46°36' W 004°06'2 3.1
2017-Jul-16 14:00N 46°35' W 004°06'2 3.1
2017-Jul-16 13:29N 46°33' W 004°06'2 3.1
2017-Jul-16 12:53N 46°32' W 004°04'11 3.2
2017-Jul-16 09:28N 46°33' W 003°48'2 3.2
2017-Jul-16 08:49N 46°34' W 003°46'1 3.4
2017-Jul-16 08:24N 46°35' W 003°45'2 3.5
2017-Jul-16 07:51N 46°36' W 003°43'1 1.5
2017-Jul-16 07:28N 46°36' W 003°42'1 2.6
2017-Jul-16 07:00N 46°36' W 003°40'2 2.5
2017-Jul-16 06:05N 46°37' W 003°38'0 3.0
2017-Jul-16 06:00N 46°37' W 003°38'1 2.9
2017-Jul-16 05:30N 46°38' W 003°39'2 3.1
2017-Jul-16 04:59N 46°39' W 003°41'2 3.1
2017-Jul-16 04:30N 46°39' W 003°43'1 3.1
2017-Jul-16 04:00N 46°38' W 003°46'2 3.1
2017-Jul-16 03:30N 46°38' W 003°48'2 3.1
2017-Jul-16 03:01N 46°38' W 003°50'1 2.9
2017-Jul-16 02:30N 46°38' W 003°52'1 2.4
2017-Jul-16 02:00N 46°38' W 003°54'1 2.8
2017-Jul-16 01:30N 46°38' W 003°56'1 2.8
2017-Jul-16 01:00N 46°38' W 003°58'1 2.7
2017-Jul-16 00:30N 46°38' W 004°00'1 2.7
2017-Jul-16 00:00N 46°37' W 004°02'1 2.7
2017-Jul-15 23:30N 46°37' W 004°04'1 2.8
2017-Jul-15 23:00N 46°37' W 004°06'1 2.8
2017-Jul-15 22:30N 46°37' W 004°08'1 2.9
2017-Jul-15 22:00N 46°37' W 004°10'1 2.8
2017-Jul-15 21:30N 46°37' W 004°12'1 2.5
2017-Jul-15 20:58N 46°37' W 004°14'2 3.0
2017-Jul-15 20:25N 46°37' W 004°17'1 3.2
2017-Jul-15 20:00N 46°38' W 004°18'1 3.0
2017-Jul-15 19:30N 46°40' W 004°17'1 2.5
2017-Jul-15 19:00N 46°40' W 004°16'2 2.9
2017-Jul-15 18:28N 46°39' W 004°13'1 3.0
2017-Jul-15 17:59N 46°39' W 004°11'1 2.9
2017-Jul-15 17:30N 46°39' W 004°09'1 2.9
2017-Jul-15 17:00N 46°39' W 004°07'1 2.7
2017-Jul-15 16:30N 46°40' W 004°05'1 2.6
2017-Jul-15 16:00N 46°40' W 004°03'2 2.9
2017-Jul-15 15:20N 46°40' W 004°01'1 3.1
2017-Jul-15 14:58N 46°40' W 003°59'6 3.2
2017-Jul-15 13:15N 46°38' W 003°52'1 3.3
2017-Jul-15 12:54N 46°37' W 003°50'2 3.6
2017-Jul-15 12:17N 46°36' W 003°47'2 2.3
2017-Jul-15 11:35N 46°34' W 003°47'1 2.9
2017-Jul-15 11:07N 46°33' W 003°46'1 2.9
2017-Jul-15 10:57N 46°32' W 003°46'4 2.9
2017-Jul-15 09:30N 46°29' W 003°42'2 3.1
2017-Jul-15 08:59N 46°28' W 003°40'17 0.8
2017-Jul-14 12:23N 46°43' W 003°27'1 2.2
2017-Jul-14 11:56N 46°44' W 003°27'2 2.9
2017-Jul-14 11:24N 46°42' W 003°27'5 2.8
2017-Jul-14 09:42N 46°38' W 003°27'1 2.9
2017-Jul-14 09:28N 46°37' W 003°26'1 3.0
2017-Jul-14 09:00N 46°36' W 003°25'2 2.9
2017-Jul-14 08:26N 46°35' W 003°23'1 2.9
2017-Jul-14 08:00N 46°35' W 003°21'1 1.4
2017-Jul-14 07:30N 46°34' W 003°21'  
2017-Jul-10 07:17N 46°43' W 003°27'1 2.6
2017-Jul-10 06:59N 46°42' W 003°28'8 0.6
2017-Jul-09 15:42N 46°35' W 003°22'1 2.9
2017-Jul-09 15:26N 46°34' W 003°23'2 2.4
2017-Jul-09 14:44N 46°34' W 003°25'1 3.2
2017-Jul-09 14:30N 46°35' W 003°25'2 3.2
2017-Jul-09 13:59N 46°37' W 003°27'5 2.9
2017-Jul-09 12:25N 46°41' W 003°27'3 1.5
2017-Jul-09 10:16N 46°38' W 003°26'1 3.1
2017-Jul-09 09:56N 46°37' W 003°26'4 0.4
2017-Jul-09 01:20N 46°37' W 003°31'  
Track history (hours):
 
Tides and Currents Weather Stations Pressure Air Temp Water Temp Dewpoint Dewpoint Depression Visibility Wind Speed Wind Dir Waves Ship Positions

Fisher Golf

Last reported at 2017-Jul-18 20:40 UTC. Time now 2017-Jul-23 10:49 UTC.
Position N 45°53' W 001°20'.

Length 20 m.

Type: Fishing. MMSI: 228239000.

Date/timePositionNaut miles runAvg speedWind from/ knotsBaromVisibWave heightAir tempDewpointWater temp
2017-Jul-18 20:40N 45°53' W 001°20'1 5.2
2017-Jul-18 20:25N 45°54' W 001°22'5 8.9
2017-Jul-18 19:52N 45°55' W 001°29'410.0
2017-Jul-18 19:30N 45°57' W 001°34'510.3
2017-Jul-18 19:00N 45°58' W 001°40'510.1
2017-Jul-18 18:30N 46°00' W 001°47'510.2
2017-Jul-18 17:59N 46°02' W 001°54'510.0
2017-Jul-18 17:27N 46°04' W 002°02'92 1.8
2017-Jul-16 14:30N 46°36' W 004°06'2 3.1
2017-Jul-16 14:00N 46°35' W 004°06'2 3.1
2017-Jul-16 13:29N 46°33' W 004°06'2 3.1
2017-Jul-16 12:53N 46°32' W 004°04'11 3.2
2017-Jul-16 09:28N 46°33' W 003°48'2 3.2
2017-Jul-16 08:49N 46°34' W 003°46'1 3.4
2017-Jul-16 08:24N 46°35' W 003°45'2 3.5
2017-Jul-16 07:51N 46°36' W 003°43'1 1.5
2017-Jul-16 07:28N 46°36' W 003°42'1 2.6
2017-Jul-16 07:00N 46°36' W 003°40'2 2.5
2017-Jul-16 06:05N 46°37' W 003°38'0 3.0
2017-Jul-16 06:00N 46°37' W 003°38'1 2.9
2017-Jul-16 05:30N 46°38' W 003°39'2 3.1
2017-Jul-16 04:59N 46°39' W 003°41'2 3.1
2017-Jul-16 04:30N 46°39' W 003°43'1 3.1
2017-Jul-16 04:00N 46°38' W 003°46'2 3.1
2017-Jul-16 03:30N 46°38' W 003°48'2 3.1
2017-Jul-16 03:01N 46°38' W 003°50'1 2.9
2017-Jul-16 02:30N 46°38' W 003°52'1 2.4
2017-Jul-16 02:00N 46°38' W 003°54'1 2.8
2017-Jul-16 01:30N 46°38' W 003°56'1 2.8
2017-Jul-16 01:00N 46°38' W 003°58'1 2.7
2017-Jul-16 00:30N 46°38' W 004°00'1 2.7
2017-Jul-16 00:00N 46°37' W 004°02'1 2.7
2017-Jul-15 23:30N 46°37' W 004°04'1 2.8
2017-Jul-15 23:00N 46°37' W 004°06'1 2.8
2017-Jul-15 22:30N 46°37' W 004°08'1 2.9
2017-Jul-15 22:00N 46°37' W 004°10'1 2.8
2017-Jul-15 21:30N 46°37' W 004°12'1 2.5
2017-Jul-15 20:58N 46°37' W 004°14'2 3.0
2017-Jul-15 20:25N 46°37' W 004°17'1 3.2
2017-Jul-15 20:00N 46°38' W 004°18'1 3.0
2017-Jul-15 19:30N 46°40' W 004°17'1 2.5
2017-Jul-15 19:00N 46°40' W 004°16'2 2.9
2017-Jul-15 18:28N 46°39' W 004°13'1 3.0
2017-Jul-15 17:59N 46°39' W 004°11'1 2.9
2017-Jul-15 17:30N 46°39' W 004°09'1 2.9
2017-Jul-15 17:00N 46°39' W 004°07'1 2.7
2017-Jul-15 16:30N 46°40' W 004°05'1 2.6
2017-Jul-15 16:00N 46°40' W 004°03'2 2.9
2017-Jul-15 15:20N 46°40' W 004°01'1 3.1
2017-Jul-15 14:58N 46°40' W 003°59'6 3.2
2017-Jul-15 13:15N 46°38' W 003°52'1 3.3
2017-Jul-15 12:54N 46°37' W 003°50'2 3.6
2017-Jul-15 12:17N 46°36' W 003°47'2 2.3
2017-Jul-15 11:35N 46°34' W 003°47'1 2.9
2017-Jul-15 11:07N 46°33' W 003°46'1 2.9
2017-Jul-15 10:57N 46°32' W 003°46'4 2.9
2017-Jul-15 09:30N 46°29' W 003°42'2 3.1
2017-Jul-15 08:59N 46°28' W 003°40'17 0.8
2017-Jul-14 12:23N 46°43' W 003°27'1 2.2
2017-Jul-14 11:56N 46°44' W 003°27'2 2.9
2017-Jul-14 11:24N 46°42' W 003°27'5 2.8
2017-Jul-14 09:42N 46°38' W 003°27'1 2.9
2017-Jul-14 09:28N 46°37' W 003°26'1 3.0
2017-Jul-14 09:00N 46°36' W 003°25'2 2.9
2017-Jul-14 08:26N 46°35' W 003°23'1 2.9
2017-Jul-14 08:00N 46°35' W 003°21'1 1.4
2017-Jul-14 07:30N 46°34' W 003°21'  
2017-Jul-10 07:17N 46°43' W 003°27'1 2.6
2017-Jul-10 06:59N 46°42' W 003°28'8 0.6
2017-Jul-09 15:42N 46°35' W 003°22'1 2.9
2017-Jul-09 15:26N 46°34' W 003°23'2 2.4
2017-Jul-09 14:44N 46°34' W 003°25'1 3.2
2017-Jul-09 14:30N 46°35' W 003°25'2 3.2
2017-Jul-09 13:59N 46°37' W 003°27'5 2.9
2017-Jul-09 12:25N 46°41' W 003°27'3 1.5
2017-Jul-09 10:16N 46°38' W 003°26'1 3.1
2017-Jul-09 09:56N 46°37' W 003°26'4 0.4
2017-Jul-09 01:20N 46°37' W 003°31'  

Dump ship's entire track history